Hauptseite
METAR-TAF:

METAR-TAF

Flughäfen :

Downtown Manhattan Heliport

New York City, New York, Vereinigte Staaten

Breite: 40-42-04N, Länge: 074-00-32W, Höhe: 2 m

Beobachtung

Neuester Wetterbericht von vor 44 Minuten, um 08:56 UTC
Wind 3 kt aus Nord/Nordost
Temperatur 16°C
Luftfeuchtigkeit 88%
Luftdruck 1024 hPa
Sichtweite: 16.1 km
Geschlossene Wolkendecke in der Höhe von 400 ft

METAR: KJRB 270856Z AUTO 03003KT 10SM OVC004 16/14 A3023 RMK AO2 SLP235 T01560144 50003

Zeit: 05:40 (09:40 UTC)


TAF: fehlend

Wetterbeobachtungen und Prognosen von mehr als 4000 Flughäfen (METAR und TAF Bericht).

Die verfügbaren Stationen werden durch gelbe und rote Markierungen auf der Karte dargestellt.

Führen Sie die Maus auf sie, um den Namen der Station zu sehen.

Darauf klicken, um die Beobachtung von Wetterbeobachtungen und Prognosen zu sehen.

Um die Karte zu ändern : klicken Sie auf den grünen Tasten mit einem schwarzen Kreuz Zum Vergrößern, auf den grünen Button mit einem Gedankenstrich zu verkleinern, oder auf die grünen Pfeile für benachbarte Karten.


METAR-TAF: